If you wish to contribute or participate in the discussions about articles you are invited to join SKYbrary as a registered user

 Actions

Lübeck Airport

From SKYbrary Wiki

EDHL
Airport
ICAO: EDHL – IATA: LBC
Summary
Name Lübeck Airport
Region Europe
Territory Germany DE.gif
Location Lübeck, Schleswig-Holstein
Serving Lübeck
Elevation 52.493 ft
52.493 ft16 m
Coordinates 53° 48' 18.83" N, 10° 42' 5.59" E
Runways
Designator Length Width Surface ROPS
7/25 2102 m6,896.325 ft
60 m196.85 ft
ASP yes/yes


METAR
Observation EDHL 101020Z 01007KT 310V110 CAVOK 20/14 Q1014
Station Luebeck-Blankensee
Date/Time 10 June 2019 10:20:00
Wind direction 10°
Wind speed 07 kts
Lowest cloud amount clouds and visibility OK
Temperature 20°C
Dew point 14°C
Humidity 68%
QNH 1014 hPa
Weather condition n/a

Lübeck Airport

ICAO: EDHL IATA: LBC

Description

International airport located 8km4.32 nm
8,000 m
26,246.719 ft
south of the city of Lübeck, in the north of Germany.

Climatology

Temperate Marine climate/Oceanic climate (Köppen climate classification Cfb) - Moderately cool summer and comparatively warm winter.

Maps

Terrain

Loading map...

Airport Layout

Loading map...


Accidents & Serious Incidents at or in vicinity of EDHL

None on SKYbrary